createdAt,value
2022-12-27T00:01:20.967Z,1.60
2022-12-27T00:04:09.012Z,1.30
2022-12-27T00:06:59.823Z,0.70
2022-12-27T00:09:32.187Z,4.50
2022-12-27T00:12:26.098Z,1.40
2022-12-27T00:15:17.018Z,3.50
2022-12-27T00:18:00.764Z,1.50
2022-12-27T00:20:50.844Z,1.90
2022-12-27T00:23:43.112Z,1.80
2022-12-27T00:26:38.087Z,1.60
2022-12-27T00:29:29.671Z,1.80
2022-12-27T00:32:19.617Z,3.00
2022-12-27T00:35:13.738Z,1.50
2022-12-27T00:38:07.194Z,2.70
2022-12-27T00:41:00.030Z,2.90
2022-12-27T00:43:53.046Z,1.30
2022-12-27T00:46:47.223Z,1.20
2022-12-27T00:49:39.453Z,2.70
2022-12-27T00:52:29.264Z,1.10
2022-12-27T00:55:19.268Z,1.30
2022-12-27T00:58:09.886Z,1.90
2022-12-27T01:01:08.297Z,0.70
2022-12-27T01:04:02.075Z,2.10
2022-12-27T01:06:55.335Z,3.40
2022-12-27T01:09:50.053Z,1.30
2022-12-27T01:12:39.197Z,1.30
2022-12-27T01:15:12.808Z,1.50
2022-12-27T01:18:03.116Z,3.60
2022-12-27T01:20:54.655Z,2.20
2022-12-27T01:23:46.041Z,1.70
2022-12-27T01:26:35.618Z,2.40
2022-12-27T01:29:26.311Z,2.00
2022-12-27T01:32:19.009Z,1.50
2022-12-27T01:35:11.128Z,1.90
2022-12-27T01:38:00.313Z,3.20
2022-12-27T01:40:49.885Z,2.00
2022-12-27T01:43:39.571Z,2.20
2022-12-27T01:46:09.762Z,0.90
2022-12-27T01:49:02.310Z,1.70
2022-12-27T01:51:34.666Z,1.80
2022-12-27T01:54:27.683Z,2.90
2022-12-27T01:57:18.831Z,1.50
2022-12-27T02:00:09.972Z,2.70
2022-12-27T02:03:02.006Z,4.00
2022-12-27T02:05:33.972Z,2.70
2022-12-27T02:08:33.696Z,1.60
2022-12-27T02:11:41.530Z,5.30
2022-12-27T02:14:34.715Z,3.20
2022-12-27T02:17:29.556Z,1.40
2022-12-27T02:20:22.039Z,2.30
2022-12-27T02:23:58.524Z,2.00
2022-12-27T02:26:40.689Z,2.30
2022-12-27T02:29:57.868Z,2.90
2022-12-27T02:32:53.713Z,0.90
2022-12-27T02:35:46.939Z,2.00
2022-12-27T02:38:43.065Z,1.10
2022-12-27T02:41:53.503Z,0.70
2022-12-27T02:45:00.965Z,0.80
2022-12-27T02:47:49.441Z,1.00
2022-12-27T02:51:08.650Z,0.80
2022-12-27T02:53:51.914Z,2.90
2022-12-27T02:57:09.042Z,2.70
2022-12-27T03:00:23.285Z,6.60
2022-12-27T03:03:23.551Z,2.50
2022-12-27T03:06:46.034Z,3.40
2022-12-27T03:09:56.611Z,3.30
2022-12-27T03:12:59.808Z,1.90
2022-12-27T03:15:55.228Z,2.90
2022-12-27T03:19:00.887Z,2.30
2022-12-27T03:22:08.728Z,1.70
2022-12-27T03:25:16.041Z,5.20
2022-12-27T03:28:27.917Z,5.60
2022-12-27T03:31:19.021Z,2.20
2022-12-27T03:33:59.501Z,3.50
2022-12-27T03:36:49.019Z,3.20
2022-12-27T03:39:26.187Z,3.40
2022-12-27T03:42:41.507Z,4.90
2022-12-27T03:45:13.805Z,3.60
2022-12-27T03:48:06.215Z,2.50
2022-12-27T03:51:04.356Z,8.50
2022-12-27T03:53:52.427Z,2.10
2022-12-27T03:56:42.539Z,3.90
2022-12-27T03:59:39.911Z,5.40
2022-12-27T04:02:28.918Z,6.80
2022-12-27T04:04:57.865Z,3.40
2022-12-27T04:08:04.815Z,5.60
2022-12-27T04:11:11.312Z,4.30
2022-12-27T04:13:59.051Z,2.70
2022-12-27T04:17:08.844Z,5.10
2022-12-27T04:19:55.064Z,1.90
2022-12-27T04:22:41.939Z,3.80
2022-12-27T04:25:31.061Z,2.20
2022-12-27T04:28:16.746Z,2.50
2022-12-27T04:31:02.911Z,1.40
2022-12-27T04:33:49.012Z,3.40
2022-12-27T04:36:18.110Z,3.80
2022-12-27T04:39:06.965Z,4.60
2022-12-27T04:42:16.228Z,7.60
2022-12-27T04:44:59.423Z,1.90
2022-12-27T04:48:07.587Z,4.40
2022-12-27T04:51:14.819Z,0.80
2022-12-27T04:54:01.907Z,3.60
2022-12-27T04:56:32.596Z,4.20
2022-12-27T04:59:22.392Z,7.00
2022-12-27T05:02:06.146Z,2.80
2022-12-27T05:04:54.777Z,5.10
2022-12-27T05:07:42.513Z,7.10
2022-12-27T05:10:29.232Z,9.20
2022-12-27T05:13:16.922Z,1.70
2022-12-27T05:15:49.637Z,4.90
2022-12-27T05:18:18.597Z,5.50
2022-12-27T05:21:09.969Z,6.60
2022-12-27T05:24:00.205Z,4.90
2022-12-27T05:26:33.586Z,5.30
2022-12-27T05:29:36.305Z,6.30
2022-12-27T05:32:31.244Z,2.80
2022-12-27T05:35:23.137Z,1.00
2022-12-27T05:38:14.173Z,2.30
2022-12-27T05:41:11.475Z,4.80
2022-12-27T05:44:06.897Z,7.80
2022-12-27T05:47:02.929Z,4.00
2022-12-27T05:49:51.652Z,5.30
2022-12-27T05:52:46.177Z,7.50
2022-12-27T05:55:36.528Z,3.20
2022-12-27T05:58:25.457Z,2.70
2022-12-27T06:01:16.029Z,3.40
2022-12-27T06:04:05.113Z,4.30
2022-12-27T06:06:55.812Z,4.60
2022-12-27T06:09:44.677Z,2.70
2022-12-27T06:12:34.960Z,7.20
2022-12-27T06:15:24.248Z,6.10
2022-12-27T06:18:13.776Z,5.90
2022-12-27T06:21:06.296Z,6.80
2022-12-27T06:23:43.542Z,3.40
2022-12-27T06:26:33.712Z,5.00
2022-12-27T06:29:25.498Z,6.10
2022-12-27T06:32:17.261Z,6.30
2022-12-27T06:35:10.767Z,5.40
2022-12-27T06:38:00.773Z,3.60
2022-12-27T06:40:48.614Z,2.40
2022-12-27T06:43:16.459Z,7.00
2022-12-27T06:45:44.591Z,6.30
2022-12-27T06:48:14.413Z,3.20
2022-12-27T06:50:42.708Z,1.00
2022-12-27T06:53:10.407Z,4.60
2022-12-27T06:55:38.388Z,2.20
2022-12-27T06:58:06.117Z,3.60
2022-12-27T07:00:33.647Z,7.80
2022-12-27T07:03:02.560Z,5.20
2022-12-27T07:05:31.365Z,5.00
2022-12-27T07:07:59.825Z,4.50
2022-12-27T07:10:27.389Z,7.40
2022-12-27T07:12:55.351Z,4.50
2022-12-27T07:15:23.357Z,3.20
2022-12-27T07:17:51.315Z,4.90
2022-12-27T07:20:19.032Z,5.30
2022-12-27T07:22:46.712Z,10.90
2022-12-27T07:25:14.350Z,2.50
2022-12-27T07:27:41.889Z,4.30
2022-12-27T07:30:11.090Z,3.10
2022-12-27T07:32:39.110Z,3.80
2022-12-27T07:35:08.047Z,3.40
2022-12-27T07:37:37.661Z,4.10
2022-12-27T07:40:08.111Z,2.20
2022-12-27T07:42:35.635Z,7.40
2022-12-27T07:45:05.582Z,1.40
2022-12-27T07:47:33.482Z,2.70
2022-12-27T07:50:02.568Z,5.50
2022-12-27T07:52:30.155Z,5.70
2022-12-27T07:54:57.778Z,3.20
2022-12-27T07:57:27.135Z,3.00
2022-12-27T07:59:54.926Z,4.10
2022-12-27T08:02:22.550Z,4.80
2022-12-27T08:04:52.181Z,9.30
2022-12-27T08:07:22.568Z,7.80
2022-12-27T08:09:50.336Z,5.20
2022-12-27T08:12:18.273Z,4.30
2022-12-27T08:14:46.393Z,2.40
2022-12-27T08:17:19.939Z,7.60
2022-12-27T08:19:47.968Z,4.10
2022-12-27T08:22:16.328Z,5.00
2022-12-27T08:24:44.364Z,7.80
2022-12-27T08:27:12.222Z,1.80
2022-12-27T08:29:39.867Z,6.20
2022-12-27T08:32:09.917Z,5.00
2022-12-27T08:34:40.328Z,4.60
2022-12-27T08:37:08.729Z,2.70
2022-12-27T08:39:36.348Z,9.00
2022-12-27T08:42:05.090Z,2.60
2022-12-27T08:44:32.684Z,3.90
2022-12-27T08:47:00.269Z,2.80
2022-12-27T08:49:28.203Z,4.60
2022-12-27T08:51:55.811Z,4.00
2022-12-27T08:54:23.652Z,4.80
2022-12-27T08:56:51.190Z,2.80
2022-12-27T08:59:19.246Z,2.10
2022-12-27T09:01:46.877Z,2.60
2022-12-27T09:04:14.875Z,3.80
2022-12-27T09:06:42.490Z,2.40
2022-12-27T09:09:10.816Z,4.20
2022-12-27T09:11:38.812Z,2.70
2022-12-27T09:14:06.411Z,1.80
2022-12-27T09:16:35.020Z,2.90
2022-12-27T09:19:03.771Z,5.30
2022-12-27T09:21:34.668Z,3.00
2022-12-27T09:24:03.833Z,5.30
2022-12-27T09:26:32.804Z,6.50
2022-12-27T09:29:00.909Z,4.20
2022-12-27T09:31:28.921Z,3.40
2022-12-27T09:33:57.579Z,2.00
2022-12-27T09:36:27.477Z,2.00
2022-12-27T09:38:56.868Z,4.40
2022-12-27T09:42:41.241Z,2.00
2022-12-27T09:44:35.321Z,5.30
2022-12-27T09:47:08.482Z,2.90
2022-12-27T09:49:41.114Z,4.00
2022-12-27T09:52:15.279Z,3.60
2022-12-27T09:55:01.059Z,0.90
2022-12-27T09:57:36.787Z,4.40
2022-12-27T10:00:12.479Z,4.30
2022-12-27T10:02:40.869Z,4.50
2022-12-27T10:05:20.747Z,8.70
2022-12-27T10:08:03.116Z,7.10
2022-12-27T10:10:40.663Z,3.60
2022-12-27T10:13:22.260Z,5.10
2022-12-27T10:15:55.731Z,2.60
2022-12-27T10:18:35.098Z,2.90
2022-12-27T10:21:13.592Z,1.70
2022-12-27T10:23:48.945Z,1.90
2022-12-27T10:26:19.115Z,2.20
2022-12-27T10:28:55.555Z,3.40
2022-12-27T10:31:30.216Z,6.70
2022-12-27T10:34:00.643Z,2.90
2022-12-27T10:36:30.854Z,1.30
2022-12-27T10:39:03.727Z,6.60
2022-12-27T10:41:43.561Z,2.50
2022-12-27T10:44:12.060Z,3.80
2022-12-27T10:46:43.194Z,2.10
2022-12-27T10:49:25.900Z,1.20
2022-12-27T10:51:56.821Z,8.70
2022-12-27T10:54:26.663Z,2.10
2022-12-27T10:56:55.523Z,4.00
2022-12-27T10:59:24.903Z,2.90
2022-12-27T11:02:16.333Z,1.90
2022-12-27T11:04:57.950Z,1.70
2022-12-27T11:07:30.435Z,3.20
2022-12-27T11:10:13.768Z,1.80
2022-12-27T11:12:55.472Z,2.20
2022-12-27T11:15:23.703Z,1.10
2022-12-27T11:17:53.502Z,4.40
2022-12-27T11:20:26.092Z,3.90
2022-12-27T11:22:58.579Z,2.30
2022-12-27T11:25:28.255Z,4.20
2022-12-27T11:28:00.502Z,2.90
2022-12-27T11:30:32.227Z,4.30
2022-12-27T11:33:04.568Z,4.60
2022-12-27T11:35:43.191Z,1.10
2022-12-27T11:38:22.216Z,6.80
2022-12-27T11:40:57.684Z,3.30
2022-12-27T11:43:28.988Z,1.40
2022-12-27T11:45:58.012Z,1.90
2022-12-27T11:48:28.413Z,3.10
2022-12-27T11:51:16.335Z,2.60
2022-12-27T11:54:10.608Z,2.00
2022-12-27T11:56:42.753Z,1.80
2022-12-27T11:59:33.796Z,1.40
2022-12-27T12:02:38.303Z,3.20
2022-12-27T12:05:41.149Z,1.90
2022-12-27T12:08:39.932Z,2.30
2022-12-27T12:11:25.024Z,6.80
2022-12-27T12:14:19.128Z,2.20
2022-12-27T12:17:11.221Z,2.70
2022-12-27T12:20:07.668Z,1.60
2022-12-27T12:22:50.391Z,4.50
2022-12-27T12:25:52.608Z,4.00
2022-12-27T12:28:58.288Z,4.40
2022-12-27T12:31:49.493Z,2.50
2022-12-27T12:34:34.338Z,1.30
2022-12-27T12:37:18.579Z,4.60
2022-12-27T12:40:11.816Z,1.60
2022-12-27T12:42:53.740Z,1.10
2022-12-27T12:45:32.186Z,1.50
2022-12-27T12:48:44.271Z,4.70
2022-12-27T12:51:29.894Z,3.10
2022-12-27T12:54:12.126Z,3.70
2022-12-27T12:57:07.494Z,2.40
2022-12-27T13:00:03.889Z,5.10
2022-12-27T13:03:07.238Z,1.90
2022-12-27T13:05:43.148Z,2.60
2022-12-27T13:08:22.235Z,3.60
2022-12-27T13:11:07.872Z,3.70
2022-12-27T13:13:49.732Z,0.90
2022-12-27T13:16:30.792Z,1.70
2022-12-27T13:19:22.882Z,4.70
2022-12-27T13:22:04.564Z,3.50
2022-12-27T13:24:45.711Z,3.70
2022-12-27T13:27:21.958Z,4.70
2022-12-27T13:30:06.894Z,2.30
2022-12-27T13:32:52.149Z,2.10
2022-12-27T13:35:33.560Z,1.90
2022-12-27T13:38:19.241Z,5.10
2022-12-27T13:41:15.713Z,8.70
2022-12-27T13:44:06.123Z,2.00
2022-12-27T13:46:47.427Z,1.20
2022-12-27T13:49:40.897Z,2.70
2022-12-27T13:52:25.771Z,2.60
2022-12-27T13:55:19.961Z,2.50
2022-12-27T13:58:27.289Z,3.70
2022-12-27T14:01:07.175Z,3.40
2022-12-27T14:04:00.645Z,2.50
2022-12-27T14:06:52.653Z,5.50
2022-12-27T14:09:40.111Z,3.90
2022-12-27T14:12:31.148Z,5.10
2022-12-27T14:15:03.306Z,4.40
2022-12-27T14:17:37.882Z,2.60
2022-12-27T14:20:26.052Z,4.50
2022-12-27T14:23:23.591Z,4.60
2022-12-27T14:26:18.922Z,1.90
2022-12-27T14:29:27.238Z,3.70
2022-12-27T14:32:22.290Z,4.00
2022-12-27T14:35:07.043Z,2.30
2022-12-27T14:37:56.664Z,5.40
2022-12-27T14:40:44.156Z,3.50
2022-12-27T14:43:52.038Z,2.60
2022-12-27T14:46:50.825Z,4.10
2022-12-27T14:50:07.603Z,3.70
2022-12-27T14:53:00.450Z,4.80
2022-12-27T14:55:40.084Z,3.30
2022-12-27T14:58:24.626Z,4.10
2022-12-27T15:01:06.072Z,3.50
2022-12-27T15:03:53.652Z,4.90
2022-12-27T15:06:42.674Z,5.50
2022-12-27T15:09:19.296Z,5.20
2022-12-27T15:12:03.293Z,3.80
2022-12-27T15:14:56.921Z,3.20
2022-12-27T15:17:41.775Z,3.60
2022-12-27T15:20:31.727Z,8.70
2022-12-27T15:23:11.366Z,5.00
2022-12-27T15:25:52.884Z,4.70
2022-12-27T15:28:33.025Z,3.90
2022-12-27T15:31:07.887Z,6.00
2022-12-27T15:33:48.712Z,5.30
2022-12-27T15:36:20.396Z,12.20
2022-12-27T15:38:54.058Z,7.40
2022-12-27T15:41:31.994Z,11.40
2022-12-27T15:44:19.001Z,12.60
2022-12-27T15:47:15.476Z,10.10
2022-12-27T15:50:26.327Z,15.30
2022-12-27T15:53:18.876Z,11.90
2022-12-27T15:56:42.021Z,10.70
2022-12-27T15:59:35.501Z,7.70
2022-12-27T16:02:25.281Z,7.30
2022-12-27T16:04:56.748Z,6.50
2022-12-27T16:07:46.655Z,7.50
2022-12-27T16:10:48.142Z,7.40
2022-12-27T16:13:26.861Z,6.60
2022-12-27T16:15:56.531Z,7.60
2022-12-27T16:19:08.171Z,9.60
2022-12-27T16:22:17.245Z,12.70
2022-12-27T16:25:30.380Z,6.60
2022-12-27T16:28:27.708Z,10.60
2022-12-27T16:31:04.151Z,8.20
2022-12-27T16:33:55.715Z,7.80
2022-12-27T16:36:51.182Z,9.10
2022-12-27T16:39:55.210Z,6.90
2022-12-27T16:43:31.055Z,7.20
2022-12-27T16:46:29.984Z,4.60
2022-12-27T16:49:24.298Z,5.00
2022-12-27T16:52:43.386Z,8.50
2022-12-27T16:56:07.229Z,6.10
2022-12-27T16:58:59.743Z,9.20
2022-12-27T17:02:11.885Z,5.60
2022-12-27T17:05:02.492Z,3.50
2022-12-27T17:07:44.486Z,4.00
2022-12-27T17:10:46.415Z,6.60
2022-12-27T17:13:55.435Z,2.70
2022-12-27T17:16:37.605Z,5.00
2022-12-27T17:19:29.516Z,5.80
2022-12-27T17:22:27.313Z,4.80
2022-12-27T17:25:26.569Z,5.70
2022-12-27T17:28:08.204Z,4.70
2022-12-27T17:30:52.363Z,2.90
2022-12-27T17:33:48.377Z,4.10
2022-12-27T17:36:59.462Z,4.10
2022-12-27T17:40:12.695Z,6.40
2022-12-27T17:43:38.450Z,4.10
2022-12-27T17:46:40.040Z,4.80
2022-12-27T17:49:31.136Z,7.70
2022-12-27T17:52:24.930Z,8.00
2022-12-27T17:55:18.173Z,7.40
2022-12-27T17:57:54.432Z,7.70
2022-12-27T18:00:25.338Z,7.80
2022-12-27T18:02:55.577Z,5.10
2022-12-27T18:05:29.498Z,6.40
2022-12-27T18:08:28.155Z,4.80
2022-12-27T18:10:57.143Z,3.90
2022-12-27T18:13:29.448Z,4.40
2022-12-27T18:15:58.789Z,6.40
2022-12-27T18:18:31.397Z,4.60
2022-12-27T18:21:05.985Z,4.00
2022-12-27T18:23:57.662Z,5.10
2022-12-27T18:26:46.648Z,6.60
2022-12-27T18:29:16.284Z,3.80
2022-12-27T18:31:49.137Z,5.70
2022-12-27T18:34:25.364Z,6.50
2022-12-27T18:37:18.842Z,8.50
2022-12-27T18:39:52.171Z,5.90
2022-12-27T18:42:44.136Z,7.40
2022-12-27T18:45:22.382Z,10.10
2022-12-27T18:47:53.124Z,7.20
2022-12-27T18:50:25.396Z,7.10
2022-12-27T18:53:04.422Z,8.00
2022-12-27T18:56:00.167Z,12.40
2022-12-27T18:59:00.949Z,10.20
2022-12-27T19:01:41.937Z,10.60
2022-12-27T19:04:32.207Z,7.40
2022-12-27T19:07:26.309Z,7.30
2022-12-27T19:10:20.158Z,6.10
2022-12-27T19:13:22.568Z,10.20
2022-12-27T19:16:25.780Z,11.10
2022-12-27T19:19:28.076Z,9.90
2022-12-27T19:21:58.432Z,10.90
2022-12-27T19:25:01.540Z,12.80
2022-12-27T19:28:05.156Z,13.00
2022-12-27T19:31:05.304Z,15.00
2022-12-27T19:33:42.743Z,13.30
2022-12-27T19:36:22.710Z,9.80
2022-12-27T19:39:24.599Z,9.20
2022-12-27T19:42:17.644Z,9.20
2022-12-27T19:45:11.920Z,11.30
2022-12-27T19:48:05.029Z,9.90
2022-12-27T19:50:55.721Z,9.40
2022-12-27T19:53:49.967Z,13.90
2022-12-27T19:56:44.993Z,10.30
2022-12-27T19:59:42.239Z,11.80
2022-12-27T20:02:31.661Z,10.30
2022-12-27T20:06:11.366Z,11.90
2022-12-27T20:08:26.463Z,11.70
2022-12-27T20:11:17.007Z,9.60
2022-12-27T20:14:10.699Z,13.00
2022-12-27T20:17:04.700Z,13.40
2022-12-27T20:19:55.037Z,13.80
2022-12-27T20:22:50.270Z,16.90
2022-12-27T20:25:45.168Z,11.30
2022-12-27T20:28:38.550Z,12.20
2022-12-27T20:31:27.872Z,19.20
2022-12-27T20:34:22.523Z,11.00
2022-12-27T20:37:13.311Z,12.70
2022-12-27T20:39:55.808Z,13.30
2022-12-27T20:42:46.503Z,11.80
2022-12-27T20:45:36.564Z,11.80
2022-12-27T20:48:28.056Z,10.10
2022-12-27T20:51:18.684Z,10.10
2022-12-27T20:54:07.734Z,12.60
2022-12-27T20:56:59.233Z,9.80
2022-12-27T20:59:49.395Z,10.60
2022-12-27T21:02:44.395Z,11.60
2022-12-27T21:05:34.022Z,10.70
2022-12-27T21:08:04.964Z,9.60
2022-12-27T21:10:34.462Z,10.50
2022-12-27T21:13:22.868Z,8.30
2022-12-27T21:16:17.679Z,11.60
2022-12-27T21:19:07.698Z,11.50
2022-12-27T21:21:56.824Z,11.10
2022-12-27T21:24:27.253Z,8.70
2022-12-27T21:27:23.303Z,12.00
2022-12-27T21:30:15.354Z,11.00
2022-12-27T21:33:04.178Z,11.40
2022-12-27T21:35:32.586Z,8.80
2022-12-27T21:38:01.470Z,10.30
2022-12-27T21:40:58.261Z,12.60
2022-12-27T21:46:55.237Z,10.00
2022-12-27T21:49:45.732Z,9.70
2022-12-27T21:52:38.407Z,8.40
2022-12-27T21:55:28.502Z,8.60
2022-12-27T21:58:18.205Z,9.90
2022-12-27T22:01:10.196Z,10.20
2022-12-27T22:04:02.454Z,9.00
2022-12-27T22:06:52.239Z,8.00
2022-12-27T22:09:40.992Z,8.60
2022-12-27T22:12:36.358Z,9.20
2022-12-27T22:15:08.717Z,9.60
2022-12-27T22:17:38.122Z,8.20
2022-12-27T22:20:16.235Z,8.20
2022-12-27T22:23:06.024Z,4.90
2022-12-27T22:26:01.896Z,9.10
2022-12-27T22:28:31.485Z,8.30
2022-12-27T22:31:23.513Z,4.70
2022-12-27T22:33:52.531Z,7.10
2022-12-27T22:36:27.651Z,5.70
2022-12-27T22:39:16.998Z,8.80
2022-12-27T22:42:05.680Z,5.70
2022-12-27T22:44:49.633Z,6.00
2022-12-27T22:47:27.967Z,6.30
2022-12-27T22:50:18.691Z,6.10
2022-12-27T22:53:07.326Z,7.90
2022-12-27T22:55:58.540Z,8.70
2022-12-27T22:58:31.586Z,9.10
2022-12-27T23:01:24.195Z,5.60
2022-12-27T23:04:17.295Z,6.70
2022-12-27T23:07:01.146Z,3.90
2022-12-27T23:09:39.196Z,5.30
2022-12-27T23:12:14.496Z,6.30
2022-12-27T23:15:03.718Z,6.30
2022-12-27T23:17:55.324Z,4.50
2022-12-27T23:21:20.708Z,5.50
2022-12-27T23:23:36.228Z,6.20
2022-12-27T23:26:24.183Z,6.20
2022-12-27T23:29:14.577Z,6.00
2022-12-27T23:32:03.925Z,5.10
2022-12-27T23:34:55.887Z,7.40
2022-12-27T23:37:46.256Z,5.20
2022-12-27T23:40:19.208Z,5.20
2022-12-27T23:43:51.104Z,5.80
2022-12-27T23:46:16.073Z,5.90
2022-12-27T23:49:08.294Z,5.30
2022-12-27T23:51:59.846Z,4.70
2022-12-27T23:54:51.110Z,4.00
2022-12-27T23:57:44.794Z,5.10
